createdAt,value
2019-03-16T00:01:37.147Z,1.57
2019-03-16T00:05:42.023Z,1.50
2019-03-16T00:09:46.922Z,1.40
2019-03-16T00:13:51.815Z,1.90
2019-03-16T00:17:56.724Z,1.03
2019-03-16T00:22:01.613Z,1.80
2019-03-16T00:26:06.498Z,1.07
2019-03-16T00:30:13.906Z,1.70
2019-03-16T00:34:18.791Z,1.40
2019-03-16T00:38:23.742Z,1.47
2019-03-16T00:42:28.575Z,1.57
2019-03-16T00:46:33.459Z,1.30
2019-03-16T00:50:38.357Z,2.00
2019-03-16T00:54:43.235Z,1.30
2019-03-16T00:58:48.131Z,1.10
2019-03-16T01:02:53.014Z,1.43
2019-03-16T01:06:57.892Z,1.73
2019-03-16T01:11:02.782Z,1.37
2019-03-16T01:15:12.292Z,1.90
2019-03-16T01:19:17.260Z,1.80
2019-03-16T01:23:22.167Z,1.63
2019-03-16T01:27:27.047Z,1.33
2019-03-16T01:31:31.938Z,1.40
2019-03-16T01:35:36.831Z,1.50
2019-03-16T01:39:41.725Z,1.53
2019-03-16T01:43:46.611Z,1.30
2019-03-16T01:47:51.486Z,1.73
2019-03-16T01:51:56.381Z,1.63
2019-03-16T01:56:01.264Z,1.40
2019-03-16T02:00:14.331Z,1.53
2019-03-16T02:04:19.201Z,1.40
2019-03-16T02:08:24.073Z,1.30
2019-03-16T02:12:28.962Z,1.93
2019-03-16T02:16:33.851Z,1.40
2019-03-16T02:20:38.740Z,1.10
2019-03-16T02:24:43.639Z,1.50
2019-03-16T02:28:48.524Z,1.47
2019-03-16T02:32:53.421Z,1.50
2019-03-16T02:36:58.309Z,1.50
2019-03-16T02:41:03.221Z,1.73
2019-03-16T02:45:09.641Z,1.50
2019-03-16T02:49:14.525Z,1.87
2019-03-16T02:53:19.411Z,1.60
2019-03-16T02:57:24.308Z,1.20
2019-03-16T03:01:29.189Z,1.53
2019-03-16T03:05:34.084Z,1.00
2019-03-16T03:09:38.955Z,1.20
2019-03-16T03:13:43.841Z,1.30
2019-03-16T03:17:48.752Z,0.83
2019-03-16T03:21:53.615Z,0.90
2019-03-16T03:25:58.511Z,0.87
2019-03-16T03:30:04.477Z,0.67
2019-03-16T03:34:09.363Z,0.93
2019-03-16T03:38:14.251Z,1.10
2019-03-16T03:42:19.151Z,1.00
2019-03-16T03:46:24.036Z,0.80
2019-03-16T03:50:28.937Z,0.90
2019-03-16T03:54:33.840Z,1.07
2019-03-16T03:58:38.722Z,0.70
2019-03-16T04:02:43.624Z,1.00
2019-03-16T04:06:48.499Z,0.80
2019-03-16T04:10:53.376Z,0.70
2019-03-16T04:14:58.260Z,0.90
2019-03-16T04:19:03.148Z,0.77
2019-03-16T04:23:08.043Z,0.87
2019-03-16T04:27:16.200Z,0.60
2019-03-16T04:31:19.617Z,1.30
2019-03-16T04:35:24.501Z,0.60
2019-03-16T04:39:29.388Z,0.70
2019-03-16T04:43:34.278Z,0.50
2019-03-16T04:47:39.173Z,0.70
2019-03-16T04:51:44.066Z,1.00
2019-03-16T04:55:48.945Z,0.60
2019-03-16T04:59:53.855Z,0.70
2019-03-16T05:03:58.751Z,0.73
2019-03-16T05:08:03.647Z,0.63
2019-03-16T05:12:08.531Z,1.10
2019-03-16T05:16:13.408Z,1.33
2019-03-16T05:20:18.300Z,1.13
2019-03-16T05:24:23.187Z,1.03
2019-03-16T05:28:28.077Z,1.07
2019-03-16T05:32:32.970Z,0.80
2019-03-16T05:36:37.855Z,0.63
2019-03-16T05:40:42.744Z,0.60
2019-03-16T05:44:47.641Z,0.50
2019-03-16T05:48:52.535Z,0.57
2019-03-16T05:52:57.431Z,0.30
2019-03-16T05:57:02.312Z,0.30
2019-03-16T06:01:07.202Z,0.30
2019-03-16T06:05:12.431Z,0.70
2019-03-16T06:09:17.424Z,0.50
2019-03-16T06:13:22.294Z,0.77
2019-03-16T06:17:27.188Z,0.70
2019-03-16T06:21:32.074Z,0.30
2019-03-16T06:25:36.973Z,0.20
2019-03-16T06:29:41.869Z,0.50
2019-03-16T06:33:46.758Z,0.30
2019-03-16T06:37:51.646Z,0.30
2019-03-16T06:41:56.542Z,0.20
2019-03-16T06:46:01.436Z,0.30
2019-03-16T06:50:14.656Z,0.47
2019-03-16T06:54:19.543Z,0.30
2019-03-16T06:58:24.442Z,0.23
2019-03-16T07:02:30.323Z,0.27
2019-03-16T07:06:35.216Z,0.40
2019-03-16T07:10:41.190Z,0.30
2019-03-16T07:14:46.163Z,0.30
2019-03-16T07:18:58.645Z,0.30
2019-03-16T07:22:57.719Z,0.20
2019-03-16T07:27:02.623Z,0.20
2019-03-16T07:31:07.515Z,0.37
2019-03-16T07:35:12.416Z,0.20
2019-03-16T07:39:17.301Z,0.20
2019-03-16T07:43:22.202Z,0.37
2019-03-16T07:47:27.098Z,0.40
2019-03-16T07:51:32.002Z,0.20
2019-03-16T07:55:36.909Z,0.23
2019-03-16T07:59:41.798Z,0.20
2019-03-16T08:03:46.691Z,0.30
2019-03-16T08:07:51.585Z,0.50
2019-03-16T08:11:56.835Z,0.30
2019-03-16T08:16:01.733Z,0.20
2019-03-16T08:20:08.391Z,0.20
2019-03-16T08:24:13.284Z,0.30
2019-03-16T08:28:18.188Z,0.87
2019-03-16T08:32:25.415Z,0.23
2019-03-16T08:36:30.450Z,0.50
2019-03-16T08:40:35.344Z,0.60
2019-03-16T08:44:41.063Z,0.40
2019-03-16T08:48:45.963Z,0.37
2019-03-16T08:52:53.592Z,0.50
2019-03-16T08:56:57.457Z,0.63
2019-03-16T09:01:03.899Z,0.57
2019-03-16T09:05:08.863Z,0.53
2019-03-16T09:09:13.757Z,0.50
2019-03-16T09:13:18.651Z,0.70
2019-03-16T09:17:23.551Z,0.80
2019-03-16T09:21:28.456Z,1.67
2019-03-16T09:25:33.352Z,0.70
2019-03-16T09:29:38.257Z,0.80
2019-03-16T09:33:43.151Z,2.70
2019-03-16T09:37:48.054Z,1.20
2019-03-16T09:41:52.954Z,0.80
2019-03-16T09:45:58.925Z,1.23
2019-03-16T09:50:07.667Z,0.90
2019-03-16T09:54:12.559Z,1.30
2019-03-16T09:58:17.454Z,2.10
2019-03-16T10:02:22.363Z,1.07
2019-03-16T10:06:27.251Z,1.67
2019-03-16T10:10:32.152Z,2.63
2019-03-16T10:14:37.448Z,3.70
2019-03-16T10:18:42.351Z,1.30
2019-03-16T10:22:48.839Z,1.80
2019-03-16T10:26:53.734Z,1.30
2019-03-16T10:30:58.632Z,1.10
2019-03-16T10:35:03.590Z,1.23
2019-03-16T10:39:09.567Z,2.30
2019-03-16T10:43:14.475Z,1.27
2019-03-16T10:47:19.378Z,2.47
2019-03-16T10:51:24.275Z,1.70
2019-03-16T10:55:29.188Z,1.23
2019-03-16T10:59:34.092Z,0.43
2019-03-16T11:03:39.735Z,0.80
2019-03-16T11:07:44.758Z,0.57
2019-03-16T11:11:49.656Z,0.73
2019-03-16T11:15:54.559Z,1.00
2019-03-16T11:19:59.459Z,1.03
2019-03-16T11:24:04.840Z,0.57
2019-03-16T11:28:09.730Z,0.53
2019-03-16T11:32:14.633Z,0.40
2019-03-16T11:36:19.531Z,0.87
2019-03-16T11:40:24.443Z,0.50
2019-03-16T11:44:29.338Z,0.57
2019-03-16T11:48:34.233Z,0.50
2019-03-16T11:52:39.133Z,0.47
2019-03-16T11:56:44.024Z,0.47
2019-03-16T12:00:48.935Z,0.73
2019-03-16T12:04:53.821Z,0.63
2019-03-16T12:08:58.717Z,0.57
2019-03-16T12:13:16.423Z,0.77
2019-03-16T12:17:10.239Z,0.43
2019-03-16T12:21:15.136Z,1.00
2019-03-16T12:25:20.030Z,1.20
2019-03-16T12:29:33.507Z,0.60
2019-03-16T12:33:31.531Z,0.50
2019-03-16T12:37:36.421Z,0.50
2019-03-16T12:41:41.323Z,0.50
2019-03-16T12:45:46.212Z,1.80
2019-03-16T12:49:51.112Z,0.37
2019-03-16T12:53:56.016Z,0.93
2019-03-16T12:58:00.918Z,0.60
2019-03-16T13:02:05.818Z,0.90
2019-03-16T13:06:10.702Z,0.63
2019-03-16T13:10:16.939Z,0.60
2019-03-16T13:14:21.838Z,0.40
2019-03-16T13:18:26.741Z,0.47
2019-03-16T13:22:31.631Z,0.70
2019-03-16T13:26:36.524Z,0.23
2019-03-16T13:30:41.429Z,0.50
2019-03-16T13:34:46.330Z,0.40
2019-03-16T13:38:51.221Z,0.30
2019-03-16T13:42:56.115Z,0.50
2019-03-16T13:47:00.998Z,0.70
2019-03-16T13:51:05.896Z,0.67
2019-03-16T13:55:11.232Z,0.70
2019-03-16T13:59:16.127Z,0.40
2019-03-16T14:03:21.319Z,0.40
2019-03-16T14:07:26.206Z,0.70
2019-03-16T14:11:31.105Z,0.70
2019-03-16T14:15:36.008Z,1.10
2019-03-16T14:19:40.913Z,1.20
2019-03-16T14:23:45.804Z,0.93
2019-03-16T14:27:50.696Z,1.30
2019-03-16T14:31:55.596Z,1.10
2019-03-16T14:36:00.535Z,1.13
2019-03-16T14:40:12.380Z,1.20
2019-03-16T14:44:15.918Z,1.30
2019-03-16T14:48:20.819Z,1.17
2019-03-16T14:52:25.714Z,1.63
2019-03-16T14:56:30.624Z,1.10
2019-03-16T15:00:38.817Z,1.60
2019-03-16T15:04:42.126Z,1.00
2019-03-16T15:08:47.007Z,1.47
2019-03-16T15:12:51.910Z,1.67
2019-03-16T15:16:56.809Z,1.50
2019-03-16T15:21:01.703Z,1.70
2019-03-16T15:25:11.158Z,1.70
2019-03-16T15:29:15.344Z,1.27
2019-03-16T15:33:20.271Z,1.50
2019-03-16T15:37:25.143Z,2.13
2019-03-16T15:41:30.041Z,1.40
2019-03-16T15:45:35.056Z,1.40
2019-03-16T15:49:39.891Z,1.40
2019-03-16T15:53:44.792Z,1.77
2019-03-16T15:57:49.697Z,1.73
2019-03-16T16:01:54.598Z,1.90
2019-03-16T16:05:59.504Z,2.90
2019-03-16T16:10:07.236Z,2.30
2019-03-16T16:14:12.159Z,2.00
2019-03-16T16:18:17.061Z,2.00
2019-03-16T16:22:21.958Z,1.87
2019-03-16T16:26:26.858Z,1.70
2019-03-16T16:30:31.745Z,1.80
2019-03-16T16:34:36.642Z,2.00
2019-03-16T16:38:41.541Z,3.00
2019-03-16T16:42:46.509Z,2.50
2019-03-16T16:46:51.414Z,1.50
2019-03-16T16:50:56.294Z,3.97
2019-03-16T16:55:01.212Z,2.93
2019-03-16T16:59:06.085Z,2.97
2019-03-16T17:03:10.991Z,1.60
2019-03-16T17:07:15.888Z,1.30
2019-03-16T17:11:20.776Z,2.40
2019-03-16T17:15:25.675Z,1.73
2019-03-16T17:19:30.567Z,1.10
2019-03-16T17:23:35.468Z,1.97
2019-03-16T17:27:41.428Z,1.53
2019-03-16T17:31:46.330Z,1.03
2019-03-16T17:35:51.219Z,1.10
2019-03-16T17:39:56.125Z,1.17
2019-03-16T17:44:01.026Z,1.07
2019-03-16T17:48:05.968Z,1.50
2019-03-16T17:52:10.809Z,1.67
2019-03-16T17:56:15.714Z,1.67
2019-03-16T18:00:20.879Z,1.00
2019-03-16T18:04:27.857Z,1.20
2019-03-16T18:08:32.383Z,1.20
2019-03-16T18:12:37.285Z,1.00
2019-03-16T18:16:42.180Z,1.23
2019-03-16T18:20:47.076Z,1.20
2019-03-16T18:24:51.976Z,2.07
2019-03-16T18:28:56.874Z,1.20
2019-03-16T18:33:01.795Z,2.57
2019-03-16T18:37:06.690Z,2.17
2019-03-16T18:41:11.577Z,2.40
2019-03-16T18:45:22.034Z,3.00
2019-03-16T18:49:26.927Z,1.73
2019-03-16T18:53:31.815Z,2.53
2019-03-16T18:57:36.724Z,2.57
2019-03-16T19:01:41.616Z,3.47
2019-03-16T19:05:49.357Z,2.23
2019-03-16T19:09:53.720Z,2.60
2019-03-16T19:13:58.678Z,2.37
2019-03-16T19:18:03.570Z,1.67
2019-03-16T19:22:11.414Z,1.17
2019-03-16T19:26:15.057Z,1.90
2019-03-16T19:30:21.019Z,2.07
2019-03-16T19:34:25.903Z,1.60
2019-03-16T19:38:30.801Z,1.20
2019-03-16T19:42:35.682Z,0.93
2019-03-16T19:46:40.572Z,2.70
2019-03-16T19:50:45.453Z,2.70
2019-03-16T19:54:50.341Z,1.20
2019-03-16T19:59:00.565Z,1.73
2019-03-16T20:03:01.821Z,1.67
2019-03-16T20:07:18.436Z,2.73
2019-03-16T20:11:13.302Z,4.60
2019-03-16T20:15:18.183Z,1.57
2019-03-16T20:19:23.081Z,1.97
2019-03-16T20:23:27.962Z,2.13
2019-03-16T20:27:32.855Z,2.37
2019-03-16T20:31:46.748Z,1.47
2019-03-16T20:35:44.323Z,2.17
2019-03-16T20:39:49.226Z,5.20
2019-03-16T20:43:54.134Z,2.40
2019-03-16T20:47:58.998Z,4.17
2019-03-16T20:52:03.891Z,1.60
2019-03-16T20:56:08.772Z,1.77
2019-03-16T21:00:17.811Z,6.63
2019-03-16T21:04:22.710Z,5.30
2019-03-16T21:08:27.601Z,3.17
2019-03-16T21:12:32.501Z,3.17
2019-03-16T21:16:37.382Z,2.70
2019-03-16T21:20:42.278Z,5.77
2019-03-16T21:24:47.170Z,4.93
2019-03-16T21:28:52.076Z,4.60
2019-03-16T21:32:56.970Z,3.23
2019-03-16T21:37:01.875Z,2.87
2019-03-16T21:41:06.749Z,3.13
2019-03-16T21:45:12.882Z,1.20
2019-03-16T21:49:17.769Z,2.53
2019-03-16T21:53:23.729Z,2.03
2019-03-16T21:57:28.784Z,2.00
2019-03-16T22:01:33.776Z,1.77
2019-03-16T22:05:38.674Z,1.60
2019-03-16T22:09:43.571Z,1.57
2019-03-16T22:13:48.461Z,1.50
2019-03-16T22:17:53.370Z,1.40
2019-03-16T22:21:58.312Z,1.30
2019-03-16T22:26:03.205Z,1.20
2019-03-16T22:30:10.615Z,0.90
2019-03-16T22:34:15.491Z,1.40
2019-03-16T22:38:20.368Z,1.60
2019-03-16T22:42:25.264Z,1.60
2019-03-16T22:46:30.157Z,1.40
2019-03-16T22:50:35.047Z,7.83
2019-03-16T22:54:39.947Z,4.27
2019-03-16T22:58:44.829Z,4.77
2019-03-16T23:02:49.798Z,1.57
2019-03-16T23:06:54.622Z,3.53
2019-03-16T23:10:59.512Z,2.27
2019-03-16T23:15:06.518Z,1.67
2019-03-16T23:19:11.389Z,1.00
2019-03-16T23:23:16.284Z,1.13
2019-03-16T23:27:21.162Z,1.83
2019-03-16T23:31:26.056Z,1.70
2019-03-16T23:35:30.943Z,0.97
2019-03-16T23:39:35.894Z,1.40
2019-03-16T23:43:40.792Z,1.37
2019-03-16T23:47:45.681Z,1.60
2019-03-16T23:51:50.575Z,1.27
2019-03-16T23:55:55.463Z,1.80
